sensor_id;sensor_type;location;lat;lon;timestamp;pressure;altitude;pressure_sealevel;temperature
49785;BMP280;35679;38.732;-121.358;2024-01-30T00:02:50;101358.63;;;20.40
49785;BMP280;35679;38.732;-121.358;2024-01-30T00:05:40;101360.28;;;20.41
49785;BMP280;35679;38.732;-121.358;2024-01-30T00:08:29;101355.94;;;20.40
49785;BMP280;35679;38.732;-121.358;2024-01-30T00:11:18;101358.84;;;20.38
49785;BMP280;35679;38.732;-121.358;2024-01-30T00:14:07;101351.84;;;20.37
49785;BMP280;35679;38.732;-121.358;2024-01-30T00:16:56;101342.13;;;20.36
49785;BMP280;35679;38.732;-121.358;2024-01-30T00:19:45;101342.13;;;20.36
49785;BMP280;35679;38.732;-121.358;2024-01-30T00:22:34;101348.56;;;20.35
49785;BMP280;35679;38.732;-121.358;2024-01-30T00:25:23;101348.75;;;20.34
49785;BMP280;35679;38.732;-121.358;2024-01-30T00:28:12;101348.97;;;20.32
49785;BMP280;35679;38.732;-121.358;2024-01-30T00:31:01;101342.81;;;20.32
49785;BMP280;35679;38.732;-121.358;2024-01-30T00:33:50;101342.81;;;20.32
49785;BMP280;35679;38.732;-121.358;2024-01-30T00:36:39;101352.91;;;20.30
49785;BMP280;35679;38.732;-121.358;2024-01-30T00:39:28;101349.41;;;20.29
49785;BMP280;35679;38.732;-121.358;2024-01-30T00:42:17;101355.59;;;20.30
49785;BMP280;35679;38.732;-121.358;2024-01-30T00:45:11;101358.47;;;20.28
49785;BMP280;35679;38.732;-121.358;2024-01-30T00:48:00;101356.22;;;20.25
49785;BMP280;35679;38.732;-121.358;2024-01-30T00:50:49;101362.41;;;20.26
49785;BMP280;35679;38.732;-121.358;2024-01-30T00:53:38;101359.97;;;20.24
49785;BMP280;35679;38.732;-121.358;2024-01-30T00:56:27;101362.63;;;20.24
49785;BMP280;35679;38.732;-121.358;2024-01-30T00:59:16;101368.19;;;20.23
49785;BMP280;35679;38.732;-121.358;2024-01-30T01:02:05;101369.25;;;20.22
49785;BMP280;35679;38.732;-121.358;2024-01-30T01:04:54;101377.47;;;20.20
49785;BMP280;35679;38.732;-121.358;2024-01-30T01:07:44;101378.31;;;20.21
49785;BMP280;35679;38.732;-121.358;2024-01-30T01:10:33;101383.91;;;20.19
49785;BMP280;35679;38.732;-121.358;2024-01-30T01:13:22;101379.56;;;20.18
49785;BMP280;35679;38.732;-121.358;2024-01-30T01:16:12;101390.50;;;20.17
49785;BMP280;35679;38.732;-121.358;2024-01-30T01:19:01;101385.34;;;20.15
49785;BMP280;35679;38.732;-121.358;2024-01-30T01:21:50;101390.91;;;20.14
49785;BMP280;35679;38.732;-121.358;2024-01-30T01:24:39;101399.97;;;20.13
49785;BMP280;35679;38.732;-121.358;2024-01-30T01:27:28;101405.34;;;20.13
49785;BMP280;35679;38.732;-121.358;2024-01-30T01:30:18;101410.91;;;20.11
49785;BMP280;35679;38.732;-121.358;2024-01-30T01:33:14;101414.63;;;20.10
49785;BMP280;35679;38.732;-121.358;2024-01-30T01:36:03;101415.66;;;20.09
49785;BMP280;35679;38.732;-121.358;2024-01-30T01:38:52;101420.19;;;20.09
49785;BMP280;35679;38.732;-121.358;2024-01-30T01:41:41;101422.25;;;20.07
49785;BMP280;35679;38.732;-121.358;2024-01-30T01:44:30;101420.81;;;20.04
49785;BMP280;35679;38.732;-121.358;2024-01-30T01:47:19;101418.97;;;20.05
49785;BMP280;35679;38.732;-121.358;2024-01-30T01:50:09;101433.63;;;20.02
49785;BMP280;35679;38.732;-121.358;2024-01-30T01:52:58;101437.31;;;20.01
49785;BMP280;35679;38.732;-121.358;2024-01-30T01:55:47;101441.03;;;20.00
49785;BMP280;35679;38.732;-121.358;2024-01-30T01:58:36;101432.41;;;19.98
49785;BMP280;35679;38.732;-121.358;2024-01-30T02:01:26;101444.16;;;19.97
49785;BMP280;35679;38.732;-121.358;2024-01-30T02:04:16;101447.06;;;19.96
49785;BMP280;35679;38.732;-121.358;2024-01-30T02:07:05;101450.97;;;19.93
49785;BMP280;35679;38.732;-121.358;2024-01-30T02:09:54;101449.06;;;20.00
49785;BMP280;35679;38.732;-121.358;2024-01-30T02:12:44;101453.78;;;20.11
49785;BMP280;35679;38.732;-121.358;2024-01-30T02:15:33;101452.50;;;20.20
49785;BMP280;35679;38.732;-121.358;2024-01-30T02:18:22;101448.41;;;20.24
49785;BMP280;35679;38.732;-121.358;2024-01-30T02:21:11;101447.53;;;20.30
49785;BMP280;35679;38.732;-121.358;2024-01-30T02:24:00;101452.69;;;20.32
49785;BMP280;35679;38.732;-121.358;2024-01-30T02:26:50;101461.13;;;20.35
49785;BMP280;35679;38.732;-121.358;2024-01-30T02:29:38;101461.72;;;20.37
49785;BMP280;35679;38.732;-121.358;2024-01-30T02:32:27;101452.88;;;20.37
49785;BMP280;35679;38.732;-121.358;2024-01-30T02:35:16;101466.06;;;20.38
49785;BMP280;35679;38.732;-121.358;2024-01-30T02:38:06;101459.91;;;20.38
49785;BMP280;35679;38.732;-121.358;2024-01-30T02:40:55;101457.00;;;20.39
49785;BMP280;35679;38.732;-121.358;2024-01-30T02:43:45;101440.06;;;20.39
49785;BMP280;35679;38.732;-121.358;2024-01-30T02:46:34;101440.06;;;20.39
49785;BMP280;35679;38.732;-121.358;2024-01-30T02:49:23;101437.59;;;20.37
49785;BMP280;35679;38.732;-121.358;2024-01-30T02:52:12;101430.59;;;20.36
49785;BMP280;35679;38.732;-121.358;2024-01-30T02:55:01;101424.44;;;20.36
49785;BMP280;35679;38.732;-121.358;2024-01-30T02:57:50;101423.63;;;20.35
49785;BMP280;35679;38.732;-121.358;2024-01-30T03:00:39;101425.44;;;20.35
49785;BMP280;35679;38.732;-121.358;2024-01-30T03:03:28;101432.69;;;20.34
49785;BMP280;35679;38.732;-121.358;2024-01-30T03:06:17;101429.16;;;20.34
49785;BMP280;35679;38.732;-121.358;2024-01-30T03:09:08;101431.25;;;20.32
49785;BMP280;35679;38.732;-121.358;2024-01-30T03:11:58;101440.09;;;20.32
49785;BMP280;35679;38.732;-121.358;2024-01-30T03:14:47;101443.00;;;20.31
49785;BMP280;35679;38.732;-121.358;2024-01-30T03:17:37;101436.81;;;20.30
49785;BMP280;35679;38.732;-121.358;2024-01-30T03:20:26;101450.41;;;20.29
49785;BMP280;35679;38.732;-121.358;2024-01-30T03:23:15;101456.63;;;20.29
49785;BMP280;35679;38.732;-121.358;2024-01-30T03:26:04;101453.53;;;20.26
49785;BMP280;35679;38.732;-121.358;2024-01-30T03:28:55;101464.25;;;20.26
49785;BMP280;35679;38.732;-121.358;2024-01-30T03:31:44;101473.94;;;20.27
49785;BMP280;35679;38.732;-121.358;2024-01-30T03:34:33;101469.41;;;20.27
49785;BMP280;35679;38.732;-121.358;2024-01-30T03:37:22;101470.66;;;20.25
49785;BMP280;35679;38.732;-121.358;2024-01-30T03:40:11;101478.06;;;20.23
49785;BMP280;35679;38.732;-121.358;2024-01-30T03:43:00;101476.00;;;20.25
49785;BMP280;35679;38.732;-121.358;2024-01-30T03:45:49;101472.69;;;20.23
49785;BMP280;35679;38.732;-121.358;2024-01-30T03:48:38;101470.25;;;20.21
49785;BMP280;35679;38.732;-121.358;2024-01-30T03:51:27;101468.59;;;20.20
49785;BMP280;35679;38.732;-121.358;2024-01-30T03:54:16;101462.63;;;20.18
49785;BMP280;35679;38.732;-121.358;2024-01-30T03:57:06;101468.22;;;20.17
49785;BMP280;35679;38.732;-121.358;2024-01-30T03:59:55;101464.69;;;20.16
49785;BMP280;35679;38.732;-121.358;2024-01-30T04:02:46;101454.19;;;20.15
49785;BMP280;35679;38.732;-121.358;2024-01-30T04:05:35;101446.38;;;20.13
49785;BMP280;35679;38.732;-121.358;2024-01-30T04:08:24;101453.78;;;20.11
49785;BMP280;35679;38.732;-121.358;2024-01-30T04:11:13;101458.53;;;20.09
49785;BMP280;35679;38.732;-121.358;2024-01-30T04:14:02;101456.28;;;20.06
49785;BMP280;35679;38.732;-121.358;2024-01-30T04:16:51;101466.19;;;20.06
49785;BMP280;35679;38.732;-121.358;2024-01-30T04:19:41;101465.34;;;20.05
49785;BMP280;35679;38.732;-121.358;2024-01-30T04:22:30;101463.09;;;20.02
49785;BMP280;35679;38.732;-121.358;2024-01-30T04:25:19;101474.03;;;20.01
49785;BMP280;35679;38.732;-121.358;2024-01-30T04:28:08;101475.28;;;19.98
49785;BMP280;35679;38.732;-121.358;2024-01-30T04:30:57;101472.78;;;19.97
49785;BMP280;35679;38.732;-121.358;2024-01-30T04:33:46;101477.53;;;19.95
49785;BMP280;35679;38.732;-121.358;2024-01-30T04:36:36;101467.03;;;19.93
49785;BMP280;35679;38.732;-121.358;2024-01-30T04:39:25;101471.13;;;19.89
49785;BMP280;35679;38.732;-121.358;2024-01-30T04:42:14;101461.47;;;19.88
49785;BMP280;35679;38.732;-121.358;2024-01-30T04:45:03;101465.16;;;19.87
49785;BMP280;35679;38.732;-121.358;2024-01-30T04:47:52;101460.00;;;19.86
49785;BMP280;35679;38.732;-121.358;2024-01-30T04:50:41;101451.34;;;19.84
49785;BMP280;35679;38.732;-121.358;2024-01-30T04:53:30;101459.59;;;19.82
49785;BMP280;35679;38.732;-121.358;2024-01-30T04:56:19;101454.44;;;19.81
49785;BMP280;35679;38.732;-121.358;2024-01-30T04:59:08;101458.34;;;19.78
49785;BMP280;35679;38.732;-121.358;2024-01-30T05:01:57;101455.91;;;19.77
49785;BMP280;35679;38.732;-121.358;2024-01-30T05:04:46;101457.13;;;19.74
49785;BMP280;35679;38.732;-121.358;2024-01-30T05:07:36;101459.22;;;19.73
49785;BMP280;35679;38.732;-121.358;2024-01-30T05:10:25;101455.69;;;19.72
49785;BMP280;35679;38.732;-121.358;2024-01-30T05:13:14;101449.75;;;19.70
49785;BMP280;35679;38.732;-121.358;2024-01-30T05:16:04;101449.34;;;19.67
49785;BMP280;35679;38.732;-121.358;2024-01-30T05:18:53;101453.25;;;19.64
49785;BMP280;35679;38.732;-121.358;2024-01-30T05:21:42;101448.06;;;19.63
49785;BMP280;35679;38.732;-121.358;2024-01-30T05:24:31;101445.84;;;19.60
49785;BMP280;35679;38.732;-121.358;2024-01-30T05:27:20;101446.25;;;19.57
49785;BMP280;35679;38.732;-121.358;2024-01-30T05:30:09;101445.41;;;19.56
49785;BMP280;35679;38.732;-121.358;2024-01-30T05:32:58;101445.84;;;19.53
49785;BMP280;35679;38.732;-121.358;2024-01-30T05:35:47;101444.41;;;19.51
49785;BMP280;35679;38.732;-121.358;2024-01-30T05:38:37;101447.31;;;19.49
49785;BMP280;35679;38.732;-121.358;2024-01-30T05:41:26;101447.47;;;19.48
49785;BMP280;35679;38.732;-121.358;2024-01-30T05:44:15;101452.03;;;19.47
49785;BMP280;35679;38.732;-121.358;2024-01-30T05:47:04;101461.28;;;19.45
49785;BMP280;35679;38.732;-121.358;2024-01-30T05:49:53;101468.69;;;19.43
49785;BMP280;35679;38.732;-121.358;2024-01-30T05:52:42;101469.75;;;19.42
49785;BMP280;35679;38.732;-121.358;2024-01-30T05:55:31;101478.16;;;19.39
49785;BMP280;35679;38.732;-121.358;2024-01-30T05:58:20;101485.38;;;19.38
49785;BMP280;35679;38.732;-121.358;2024-01-30T06:01:10;101483.09;;;19.35
49785;BMP280;35679;38.732;-121.358;2024-01-30T06:03:59;101480.63;;;19.34
49785;BMP280;35679;38.732;-121.358;2024-01-30T06:06:49;101478.97;;;19.33
49785;BMP280;35679;38.732;-121.358;2024-01-30T06:09:39;101484.34;;;19.33
49785;BMP280;35679;38.732;-121.358;2024-01-30T06:12:29;101488.03;;;19.32
49785;BMP280;35679;38.732;-121.358;2024-01-30T06:15:18;101481.66;;;19.26
49785;BMP280;35679;38.732;-121.358;2024-01-30T06:18:07;101488.03;;;19.25
49785;BMP280;35679;38.732;-121.358;2024-01-30T06:20:56;101476.53;;;19.25
49785;BMP280;35679;38.732;-121.358;2024-01-30T06:23:46;101479.41;;;19.23
49785;BMP280;35679;38.732;-121.358;2024-01-30T06:26:35;101475.28;;;19.21
49785;BMP280;35679;38.732;-121.358;2024-01-30T06:29:25;101473.63;;;19.20
49785;BMP280;35679;38.732;-121.358;2024-01-30T06:32:15;101468.28;;;19.20
49785;BMP280;35679;38.732;-121.358;2024-01-30T06:35:04;101473.22;;;19.16
49785;BMP280;35679;38.732;-121.358;2024-01-30T06:37:54;101482.47;;;19.14
49785;BMP280;35679;38.732;-121.358;2024-01-30T06:40:43;101484.31;;;19.13
49785;BMP280;35679;38.732;-121.358;2024-01-30T06:43:32;101482.47;;;19.14
49785;BMP280;35679;38.732;-121.358;2024-01-30T06:46:21;101474.03;;;19.10
49785;BMP280;35679;38.732;-121.358;2024-01-30T06:49:10;101471.13;;;19.12
49785;BMP280;35679;38.732;-121.358;2024-01-30T06:51:59;101476.91;;;19.09
49785;BMP280;35679;38.732;-121.358;2024-01-30T06:54:48;101478.75;;;19.08
49785;BMP280;35679;38.732;-121.358;2024-01-30T06:57:37;101478.75;;;19.08
49785;BMP280;35679;38.732;-121.358;2024-01-30T07:00:26;101481.63;;;19.07
49785;BMP280;35679;38.732;-121.358;2024-01-30T07:03:15;101475.66;;;19.05
49785;BMP280;35679;38.732;-121.358;2024-01-30T07:06:04;101484.06;;;19.02
49785;BMP280;35679;38.732;-121.358;2024-01-30T07:08:53;101476.44;;;18.99
49785;BMP280;35679;38.732;-121.358;2024-01-30T07:11:42;101485.50;;;18.98
49785;BMP280;35679;38.732;-121.358;2024-01-30T07:14:31;101485.50;;;18.98
49785;BMP280;35679;38.732;-121.358;2024-01-30T07:17:20;101492.88;;;18.96
49785;BMP280;35679;38.732;-121.358;2024-01-30T07:20:09;101510.16;;;18.94
49785;BMP280;35679;38.732;-121.358;2024-01-30T07:23:03;101506.69;;;18.93
49785;BMP280;35679;38.732;-121.358;2024-01-30T07:25:52;101497.81;;;18.93
49785;BMP280;35679;38.732;-121.358;2024-01-30T07:28:41;101492.69;;;18.91
49785;BMP280;35679;38.732;-121.358;2024-01-30T07:31:32;101486.72;;;18.89
49785;BMP280;35679;38.732;-121.358;2024-01-30T07:34:21;101481.75;;;18.86
49785;BMP280;35679;38.732;-121.358;2024-01-30T07:37:10;101477.44;;;18.85
49785;BMP280;35679;38.732;-121.358;2024-01-30T07:40:01;101471.47;;;18.83
49785;BMP280;35679;38.732;-121.358;2024-01-30T07:42:53;101458.50;;;18.80
49785;BMP280;35679;38.732;-121.358;2024-01-30T07:45:42;101461.59;;;18.77
49785;BMP280;35679;38.732;-121.358;2024-01-30T07:48:31;101459.94;;;18.76
49785;BMP280;35679;38.732;-121.358;2024-01-30T07:51:22;101456.88;;;18.79
49785;BMP280;35679;38.732;-121.358;2024-01-30T07:54:11;101458.09;;;18.77
49785;BMP280;35679;38.732;-121.358;2024-01-30T07:57:00;101466.31;;;18.75
49785;BMP280;35679;38.732;-121.358;2024-01-30T07:59:49;101464.84;;;18.73
49785;BMP280;35679;38.732;-121.358;2024-01-30T08:02:38;101475.56;;;18.73
49785;BMP280;35679;38.732;-121.358;2024-01-30T08:05:27;101471.44;;;18.70
49785;BMP280;35679;38.732;-121.358;2024-01-30T08:08:16;101471.44;;;18.70
49785;BMP280;35679;38.732;-121.358;2024-01-30T08:11:05;101469.78;;;18.69
49785;BMP280;35679;38.732;-121.358;2024-01-30T08:13:54;101466.50;;;18.67
49785;BMP280;35679;38.732;-121.358;2024-01-30T08:16:43;101462.59;;;18.63
49785;BMP280;35679;38.732;-121.358;2024-01-30T08:19:32;101469.16;;;18.67
49785;BMP280;35679;38.732;-121.358;2024-01-30T08:22:21;101467.31;;;18.68
49785;BMP280;35679;38.732;-121.358;2024-01-30T08:25:11;101464.22;;;18.64
49785;BMP280;35679;38.732;-121.358;2024-01-30T08:28:00;101460.72;;;18.64
49785;BMP280;35679;38.732;-121.358;2024-01-30T08:30:49;101455.78;;;18.61
49785;BMP280;35679;38.732;-121.358;2024-01-30T08:33:38;101451.69;;;18.58
49785;BMP280;35679;38.732;-121.358;2024-01-30T08:36:29;101442.59;;;18.59
49785;BMP280;35679;38.732;-121.358;2024-01-30T08:39:18;101450.03;;;18.57
49785;BMP280;35679;38.732;-121.358;2024-01-30T08:42:07;101448.38;;;18.56
49785;BMP280;35679;38.732;-121.358;2024-01-30T08:44:56;101451.25;;;18.55
49785;BMP280;35679;38.732;-121.358;2024-01-30T08:47:45;101445.91;;;18.55
49785;BMP280;35679;38.732;-121.358;2024-01-30T08:50:34;101446.28;;;18.52
49785;BMP280;35679;38.732;-121.358;2024-01-30T08:53:23;101441.78;;;18.52
49785;BMP280;35679;38.732;-121.358;2024-01-30T08:56:13;101449.16;;;18.50
49785;BMP280;35679;38.732;-121.358;2024-01-30T08:59:02;101448.97;;;18.52
49785;BMP280;35679;38.732;-121.358;2024-01-30T09:01:51;101441.16;;;18.50
49785;BMP280;35679;38.732;-121.358;2024-01-30T09:04:52;101429.84;;;18.48
49785;BMP280;35679;38.732;-121.358;2024-01-30T09:07:42;101430.03;;;18.47
49785;BMP280;35679;38.732;-121.358;2024-01-30T09:10:31;101434.56;;;18.46
49785;BMP280;35679;38.732;-121.358;2024-01-30T09:13:20;101437.63;;;18.43
49785;BMP280;35679;38.732;-121.358;2024-01-30T09:16:09;101433.72;;;18.46
49785;BMP280;35679;38.732;-121.358;2024-01-30T09:18:58;101433.94;;;18.44
49785;BMP280;35679;38.732;-121.358;2024-01-30T09:21:47;101433.13;;;18.44
49785;BMP280;35679;38.732;-121.358;2024-01-30T09:24:37;101425.31;;;18.42
49785;BMP280;35679;38.732;-121.358;2024-01-30T09:27:25;101427.34;;;18.41
49785;BMP280;35679;38.732;-121.358;2024-01-30T09:30:14;101426.72;;;18.39
49785;BMP280;35679;38.732;-121.358;2024-01-30T09:33:04;101428.34;;;18.40
49785;BMP280;35679;38.732;-121.358;2024-01-30T09:35:53;101427.31;;;18.34
49785;BMP280;35679;38.732;-121.358;2024-01-30T09:38:42;101431.81;;;18.34
49785;BMP280;35679;38.732;-121.358;2024-01-30T09:41:32;101421.97;;;18.34
49785;BMP280;35679;38.732;-121.358;2024-01-30T09:44:21;101426.47;;;18.34
49785;BMP280;35679;38.732;-121.358;2024-01-30T09:47:11;101422.19;;;18.33
49785;BMP280;35679;38.732;-121.358;2024-01-30T09:50:01;101426.91;;;18.31
49785;BMP280;35679;38.732;-121.358;2024-01-30T09:52:51;101426.09;;;18.30
49785;BMP280;35679;38.732;-121.358;2024-01-30T09:55:42;101424.63;;;18.28
49785;BMP280;35679;38.732;-121.358;2024-01-30T09:58:31;101428.94;;;18.29
49785;BMP280;35679;38.732;-121.358;2024-01-30T10:01:20;101430.16;;;18.26
49785;BMP280;35679;38.732;-121.358;2024-01-30T10:04:09;101424.00;;;18.26
49785;BMP280;35679;38.732;-121.358;2024-01-30T10:06:59;101418.88;;;18.24
49785;BMP280;35679;38.732;-121.358;2024-01-30T10:09:49;101420.69;;;18.24
49785;BMP280;35679;38.732;-121.358;2024-01-30T10:12:39;101420.09;;;18.22
49785;BMP280;35679;38.732;-121.358;2024-01-30T10:15:28;101417.59;;;18.20
49785;BMP280;35679;38.732;-121.358;2024-01-30T10:18:17;101417.16;;;18.17
49785;BMP280;35679;38.732;-121.358;2024-01-30T10:21:06;101421.66;;;18.16
49785;BMP280;35679;38.732;-121.358;2024-01-30T10:23:56;101431.16;;;18.19
49785;BMP280;35679;38.732;-121.358;2024-01-30T10:26:45;101436.88;;;18.16
49785;BMP280;35679;38.732;-121.358;2024-01-30T10:29:34;101444.25;;;18.14
49785;BMP280;35679;38.732;-121.358;2024-01-30T10:32:23;101445.25;;;18.13
49785;BMP280;35679;38.732;-121.358;2024-01-30T10:35:12;101450.81;;;18.11
49785;BMP280;35679;38.732;-121.358;2024-01-30T10:38:01;101437.66;;;18.10
49785;BMP280;35679;38.732;-121.358;2024-01-30T10:40:51;101435.00;;;18.10
49785;BMP280;35679;38.732;-121.358;2024-01-30T10:43:42;101434.34;;;18.08
49785;BMP280;35679;38.732;-121.358;2024-01-30T10:46:37;101428.41;;;18.06
49785;BMP280;35679;38.732;-121.358;2024-01-30T10:49:26;101423.88;;;18.06
49785;BMP280;35679;38.732;-121.358;2024-01-30T10:52:16;101425.09;;;18.04
49785;BMP280;35679;38.732;-121.358;2024-01-30T10:55:06;101413.81;;;18.02
49785;BMP280;35679;38.732;-121.358;2024-01-30T10:57:55;101402.28;;;18.01
49785;BMP280;35679;38.732;-121.358;2024-01-30T11:00:44;101408.63;;;18.00
49785;BMP280;35679;38.732;-121.358;2024-01-30T11:03:34;101414.81;;;18.01
49785;BMP280;35679;38.732;-121.358;2024-01-30T11:06:27;101421.56;;;17.97
49785;BMP280;35679;38.732;-121.358;2024-01-30T11:09:17;101421.75;;;17.95
49785;BMP280;35679;38.732;-121.358;2024-01-30T11:12:06;101423.41;;;17.96
49785;BMP280;35679;38.732;-121.358;2024-01-30T11:15:04;101415.59;;;17.95
49785;BMP280;35679;38.732;-121.358;2024-01-30T11:17:54;101421.16;;;17.93
49785;BMP280;35679;38.732;-121.358;2024-01-30T11:20:43;101418.84;;;17.90
49785;BMP280;35679;38.732;-121.358;2024-01-30T11:23:35;101411.69;;;17.91
49785;BMP280;35679;38.732;-121.358;2024-01-30T11:26:27;101406.34;;;17.91
49785;BMP280;35679;38.732;-121.358;2024-01-30T11:29:17;101397.69;;;17.89
49785;BMP280;35679;38.732;-121.358;2024-01-30T11:32:06;101397.69;;;17.89
49785;BMP280;35679;38.732;-121.358;2024-01-30T11:34:56;101397.06;;;17.87
49785;BMP280;35679;38.732;-121.358;2024-01-30T11:37:45;101389.25;;;17.85
49785;BMP280;35679;38.732;-121.358;2024-01-30T11:40:38;101406.13;;;17.86
49785;BMP280;35679;38.732;-121.358;2024-01-30T11:43:27;101403.81;;;17.83
49785;BMP280;35679;38.732;-121.358;2024-01-30T11:46:16;101404.03;;;17.81
49785;BMP280;35679;38.732;-121.358;2024-01-30T11:49:05;101399.50;;;17.82
49785;BMP280;35679;38.732;-121.358;2024-01-30T11:51:54;101399.50;;;17.82
49785;BMP280;35679;38.732;-121.358;2024-01-30T11:54:44;101394.38;;;17.80
49785;BMP280;35679;38.732;-121.358;2024-01-30T11:57:33;101396.59;;;17.77
49785;BMP280;35679;38.732;-121.358;2024-01-30T12:00:23;101393.94;;;17.77
49785;BMP280;35679;38.732;-121.358;2024-01-30T12:03:12;101383.47;;;17.75
49785;BMP280;35679;38.732;-121.358;2024-01-30T12:06:02;101389.63;;;17.76
49785;BMP280;35679;38.732;-121.358;2024-01-30T12:09:10;101401.94;;;17.77
49785;BMP280;35679;38.732;-121.358;2024-01-30T12:12:01;101406.25;;;17.78
49785;BMP280;35679;38.732;-121.358;2024-01-30T12:14:50;101405.25;;;17.79
49785;BMP280;35679;38.732;-121.358;2024-01-30T12:17:39;101402.59;;;17.79
49785;BMP280;35679;38.732;-121.358;2024-01-30T12:20:29;101399.91;;;17.79
49785;BMP280;35679;38.732;-121.358;2024-01-30T12:23:18;101401.94;;;17.77
49785;BMP280;35679;38.732;-121.358;2024-01-30T12:26:09;101400.94;;;17.78
49785;BMP280;35679;38.732;-121.358;2024-01-30T12:28:58;101403.16;;;17.74
49785;BMP280;35679;38.732;-121.358;2024-01-30T12:31:47;101409.34;;;17.75
49785;BMP280;35679;38.732;-121.358;2024-01-30T12:34:40;101410.72;;;17.71
49785;BMP280;35679;38.732;-121.358;2024-01-30T12:37:40;101411.78;;;17.70
49785;BMP280;35679;38.732;-121.358;2024-01-30T12:40:29;101416.91;;;17.72
49785;BMP280;35679;38.732;-121.358;2024-01-30T12:43:18;101411.94;;;17.69
49785;BMP280;35679;38.732;-121.358;2024-01-30T12:46:13;101406.81;;;17.67
49785;BMP280;35679;38.732;-121.358;2024-01-30T12:49:05;101411.78;;;17.70
49785;BMP280;35679;38.732;-121.358;2024-01-30T12:51:54;101414.00;;;17.67
49785;BMP280;35679;38.732;-121.358;2024-01-30T12:54:43;101415.84;;;17.66
49785;BMP280;35679;38.732;-121.358;2024-01-30T12:57:32;101414.22;;;17.65
49785;BMP280;35679;38.732;-121.358;2024-01-30T13:00:21;101415.22;;;17.64
49785;BMP280;35679;38.732;-121.358;2024-01-30T13:03:11;101403.69;;;17.64
49785;BMP280;35679;38.732;-121.358;2024-01-30T13:06:00;101397.56;;;17.63
49785;BMP280;35679;38.732;-121.358;2024-01-30T13:08:49;101398.38;;;17.64
49785;BMP280;35679;38.732;-121.358;2024-01-30T13:11:38;101397.75;;;17.62
49785;BMP280;35679;38.732;-121.358;2024-01-30T13:14:27;101389.13;;;17.60
49785;BMP280;35679;38.732;-121.358;2024-01-30T13:17:16;101391.78;;;17.60
49785;BMP280;35679;38.732;-121.358;2024-01-30T13:20:05;101391.56;;;17.61
49785;BMP280;35679;38.732;-121.358;2024-01-30T13:22:58;101398.97;;;17.59
49785;BMP280;35679;38.732;-121.358;2024-01-30T13:25:47;101396.09;;;17.61
49785;BMP280;35679;38.732;-121.358;2024-01-30T13:28:36;101390.13;;;17.59
49785;BMP280;35679;38.732;-121.358;2024-01-30T13:31:25;101394.44;;;17.60
49785;BMP280;35679;38.732;-121.358;2024-01-30T13:34:15;101401.84;;;17.58
49785;BMP280;35679;38.732;-121.358;2024-01-30T13:37:05;101394.84;;;17.57
49785;BMP280;35679;38.732;-121.358;2024-01-30T13:39:54;101394.00;;;17.56
49785;BMP280;35679;38.732;-121.358;2024-01-30T13:42:43;101393.19;;;17.56
49785;BMP280;35679;38.732;-121.358;2024-01-30T13:45:32;101389.69;;;17.55
49785;BMP280;35679;38.732;-121.358;2024-01-30T13:48:21;101390.72;;;17.54
49785;BMP280;35679;38.732;-121.358;2024-01-30T13:51:10;101389.88;;;17.54
49785;BMP280;35679;38.732;-121.358;2024-01-30T13:54:01;101382.72;;;17.54
49785;BMP280;35679;38.732;-121.358;2024-01-30T13:56:50;101388.44;;;17.51
49785;BMP280;35679;38.732;-121.358;2024-01-30T13:59:39;101384.13;;;17.50
49785;BMP280;35679;38.732;-121.358;2024-01-30T14:02:28;101382.28;;;17.51
49785;BMP280;35679;38.732;-121.358;2024-01-30T14:05:17;101374.28;;;17.51
49785;BMP280;35679;38.732;-121.358;2024-01-30T14:08:07;101370.97;;;17.49
49785;BMP280;35679;38.732;-121.358;2024-01-30T14:10:57;101363.19;;;17.47
49785;BMP280;35679;38.732;-121.358;2024-01-30T14:13:46;101366.84;;;17.46
49785;BMP280;35679;38.732;-121.358;2024-01-30T14:16:35;101365.19;;;17.45
49785;BMP280;35679;38.732;-121.358;2024-01-30T14:19:24;101370.38;;;17.47
49785;BMP280;35679;38.732;-121.358;2024-01-30T14:22:13;101359.06;;;17.45
49785;BMP280;35679;38.732;-121.358;2024-01-30T14:25:03;101359.88;;;17.45
49785;BMP280;35679;38.732;-121.358;2024-01-30T14:27:52;101351.25;;;17.43
49785;BMP280;35679;38.732;-121.358;2024-01-30T14:30:41;101356.78;;;17.42
49785;BMP280;35679;38.732;-121.358;2024-01-30T14:33:30;101346.13;;;17.42
49785;BMP280;35679;38.732;-121.358;2024-01-30T14:36:20;101351.63;;;17.40
49785;BMP280;35679;38.732;-121.358;2024-01-30T14:39:09;101344.03;;;17.37
49785;BMP280;35679;38.732;-121.358;2024-01-30T14:41:58;101342.16;;;17.38
49785;BMP280;35679;38.732;-121.358;2024-01-30T14:44:47;101355.50;;;17.38
49785;BMP280;35679;38.732;-121.358;2024-01-30T14:47:37;101347.72;;;17.36
49785;BMP280;35679;38.732;-121.358;2024-01-30T14:50:26;101346.91;;;17.36
49785;BMP280;35679;38.732;-121.358;2024-01-30T14:53:16;101341.34;;;17.37
49785;BMP280;35679;38.732;-121.358;2024-01-30T14:56:06;101338.25;;;17.34
49785;BMP280;35679;38.732;-121.358;2024-01-30T14:58:55;101343.59;;;17.34
49785;BMP280;35679;38.732;-121.358;2024-01-30T15:01:45;101335.59;;;17.34
49785;BMP280;35679;38.732;-121.358;2024-01-30T15:04:34;101348.72;;;17.35
49785;BMP280;35679;38.732;-121.358;2024-01-30T15:07:23;101341.75;;;17.34
49785;BMP280;35679;38.732;-121.358;2024-01-30T15:10:19;101331.25;;;17.33
49785;BMP280;35679;38.732;-121.358;2024-01-30T15:13:08;101332.91;;;17.34
49785;BMP280;35679;38.732;-121.358;2024-01-30T15:15:58;101335.78;;;17.32
49785;BMP280;35679;38.732;-121.358;2024-01-30T15:18:47;101340.47;;;17.30
49785;BMP280;35679;38.732;-121.358;2024-01-30T15:21:36;101335.34;;;17.29
49785;BMP280;35679;38.732;-121.358;2024-01-30T15:24:25;101335.34;;;17.29